sensor_id;sensor_type;location;lat;lon;timestamp;temperature;humidity
43665;DHT22;29263;48.172;11.484;2023-06-22T00:01:58;21.10;99.90
43665;DHT22;29263;48.172;11.484;2023-06-22T00:04:24;21.00;99.90
43665;DHT22;29263;48.172;11.484;2023-06-22T00:06:50;21.00;99.90
43665;DHT22;29263;48.172;11.484;2023-06-22T00:09:16;21.00;99.90
43665;DHT22;29263;48.172;11.484;2023-06-22T00:11:42;21.00;99.90
43665;DHT22;29263;48.172;11.484;2023-06-22T00:14:07;21.10;99.90
43665;DHT22;29263;48.172;11.484;2023-06-22T00:16:33;21.10;99.90
43665;DHT22;29263;48.172;11.484;2023-06-22T00:18:59;21.20;99.90
43665;DHT22;29263;48.172;11.484;2023-06-22T00:21:29;21.20;99.90
43665;DHT22;29263;48.172;11.484;2023-06-22T00:23:55;21.10;99.90
43665;DHT22;29263;48.172;11.484;2023-06-22T00:26:21;21.10;99.90
43665;DHT22;29263;48.172;11.484;2023-06-22T00:28:47;21.00;99.90
43665;DHT22;29263;48.172;11.484;2023-06-22T00:31:13;21.00;99.90
43665;DHT22;29263;48.172;11.484;2023-06-22T00:33:39;21.00;99.90
43665;DHT22;29263;48.172;11.484;2023-06-22T00:36:05;20.90;99.90
43665;DHT22;29263;48.172;11.484;2023-06-22T00:38:31;20.90;99.90
43665;DHT22;29263;48.172;11.484;2023-06-22T00:40:57;20.90;99.90
43665;DHT22;29263;48.172;11.484;2023-06-22T00:43:22;20.80;99.90
43665;DHT22;29263;48.172;11.484;2023-06-22T00:45:48;20.80;99.90
43665;DHT22;29263;48.172;11.484;2023-06-22T00:48:14;20.80;99.90
43665;DHT22;29263;48.172;11.484;2023-06-22T00:50:40;20.80;99.90
43665;DHT22;29263;48.172;11.484;2023-06-22T00:53:07;20.80;99.90
43665;DHT22;29263;48.172;11.484;2023-06-22T00:55:38;20.80;99.90
43665;DHT22;29263;48.172;11.484;2023-06-22T00:58:07;20.80;99.90
43665;DHT22;29263;48.172;11.484;2023-06-22T01:00:37;20.80;99.90
43665;DHT22;29263;48.172;11.484;2023-06-22T01:03:03;20.80;99.90
43665;DHT22;29263;48.172;11.484;2023-06-22T01:05:29;20.80;99.90
43665;DHT22;29263;48.172;11.484;2023-06-22T01:10:56;20.80;99.90
43665;DHT22;29263;48.172;11.484;2023-06-22T01:13:26;20.80;99.90
43665;DHT22;29263;48.172;11.484;2023-06-22T01:16:03;20.80;99.90
43665;DHT22;29263;48.172;11.484;2023-06-22T01:18:32;20.80;99.90
43665;DHT22;29263;48.172;11.484;2023-06-22T01:21:03;20.70;99.90
43665;DHT22;29263;48.172;11.484;2023-06-22T01:26:25;20.70;99.90
43665;DHT22;29263;48.172;11.484;2023-06-22T01:28:57;20.70;99.90
43665;DHT22;29263;48.172;11.484;2023-06-22T01:31:26;20.60;99.90
43665;DHT22;29263;48.172;11.484;2023-06-22T01:34:05;20.60;99.90
43665;DHT22;29263;48.172;11.484;2023-06-22T01:36:32;20.60;99.90
43665;DHT22;29263;48.172;11.484;2023-06-22T01:38:59;20.60;99.90
43665;DHT22;29263;48.172;11.484;2023-06-22T01:41:26;20.50;99.90
43665;DHT22;29263;48.172;11.484;2023-06-22T01:43:55;20.50;99.90
43665;DHT22;29263;48.172;11.484;2023-06-22T01:46:22;20.40;99.90
43665;DHT22;29263;48.172;11.484;2023-06-22T01:48:49;20.40;99.90
43665;DHT22;29263;48.172;11.484;2023-06-22T01:51:16;20.40;99.90
43665;DHT22;29263;48.172;11.484;2023-06-22T01:53:41;20.40;99.90
43665;DHT22;29263;48.172;11.484;2023-06-22T01:56:08;20.40;99.90
43665;DHT22;29263;48.172;11.484;2023-06-22T01:58:33;20.30;99.90
43665;DHT22;29263;48.172;11.484;2023-06-22T02:01:10;20.30;99.90
43665;DHT22;29263;48.172;11.484;2023-06-22T02:03:41;20.30;99.90
43665;DHT22;29263;48.172;11.484;2023-06-22T02:06:13;20.30;99.90
43665;DHT22;29263;48.172;11.484;2023-06-22T02:08:57;20.30;99.90
43665;DHT22;29263;48.172;11.484;2023-06-22T02:11:26;20.20;99.90
43665;DHT22;29263;48.172;11.484;2023-06-22T02:13:52;20.20;99.90
43665;DHT22;29263;48.172;11.484;2023-06-22T02:16:19;20.20;99.90
43665;DHT22;29263;48.172;11.484;2023-06-22T02:18:48;20.10;99.90
43665;DHT22;29263;48.172;11.484;2023-06-22T02:21:18;20.00;99.90
43665;DHT22;29263;48.172;11.484;2023-06-22T02:23:44;20.00;99.90
43665;DHT22;29263;48.172;11.484;2023-06-22T02:26:09;20.00;99.90
43665;DHT22;29263;48.172;11.484;2023-06-22T02:28:35;19.90;99.90
43665;DHT22;29263;48.172;11.484;2023-06-22T02:31:01;19.90;99.90
43665;DHT22;29263;48.172;11.484;2023-06-22T02:33:26;19.80;99.90
43665;DHT22;29263;48.172;11.484;2023-06-22T02:35:53;19.80;99.90
43665;DHT22;29263;48.172;11.484;2023-06-22T02:38:19;19.70;99.90
43665;DHT22;29263;48.172;11.484;2023-06-22T02:40:45;19.70;99.90
43665;DHT22;29263;48.172;11.484;2023-06-22T02:43:11;19.70;99.90
43665;DHT22;29263;48.172;11.484;2023-06-22T02:45:36;19.60;99.90
43665;DHT22;29263;48.172;11.484;2023-06-22T02:48:02;19.50;99.90
43665;DHT22;29263;48.172;11.484;2023-06-22T02:50:28;19.50;99.90
43665;DHT22;29263;48.172;11.484;2023-06-22T02:52:54;19.50;99.90
43665;DHT22;29263;48.172;11.484;2023-06-22T02:55:19;19.40;99.90
43665;DHT22;29263;48.172;11.484;2023-06-22T02:57:45;19.40;99.90
43665;DHT22;29263;48.172;11.484;2023-06-22T03:00:13;19.30;99.90
43665;DHT22;29263;48.172;11.484;2023-06-22T03:02:49;19.30;99.90
43665;DHT22;29263;48.172;11.484;2023-06-22T03:05:15;19.30;99.90
43665;DHT22;29263;48.172;11.484;2023-06-22T03:07:46;19.30;99.90
43665;DHT22;29263;48.172;11.484;2023-06-22T03:10:13;19.20;99.90
43665;DHT22;29263;48.172;11.484;2023-06-22T03:12:39;19.20;99.90
43665;DHT22;29263;48.172;11.484;2023-06-22T03:15:09;19.20;99.90
43665;DHT22;29263;48.172;11.484;2023-06-22T03:17:37;19.20;99.90
43665;DHT22;29263;48.172;11.484;2023-06-22T03:20:04;19.10;99.90
43665;DHT22;29263;48.172;11.484;2023-06-22T03:22:37;19.10;99.90
43665;DHT22;29263;48.172;11.484;2023-06-22T03:25:04;19.10;99.90
43665;DHT22;29263;48.172;11.484;2023-06-22T03:27:29;19.10;99.90
43665;DHT22;29263;48.172;11.484;2023-06-22T03:29:57;19.10;99.90
43665;DHT22;29263;48.172;11.484;2023-06-22T03:32:22;19.10;99.90
43665;DHT22;29263;48.172;11.484;2023-06-22T03:34:48;19.10;99.90
43665;DHT22;29263;48.172;11.484;2023-06-22T03:37:14;19.00;99.90
43665;DHT22;29263;48.172;11.484;2023-06-22T03:39:41;19.00;99.90
43665;DHT22;29263;48.172;11.484;2023-06-22T03:42:07;19.00;99.90
43665;DHT22;29263;48.172;11.484;2023-06-22T03:44:34;19.00;99.90
43665;DHT22;29263;48.172;11.484;2023-06-22T03:47:04;19.00;99.90
43665;DHT22;29263;48.172;11.484;2023-06-22T03:49:30;19.00;99.90
43665;DHT22;29263;48.172;11.484;2023-06-22T03:51:55;18.90;99.90
43665;DHT22;29263;48.172;11.484;2023-06-22T03:54:21;18.90;99.90
43665;DHT22;29263;48.172;11.484;2023-06-22T03:56:47;18.90;99.90
43665;DHT22;29263;48.172;11.484;2023-06-22T03:59:12;18.90;99.90
43665;DHT22;29263;48.172;11.484;2023-06-22T04:01:38;18.90;99.90
43665;DHT22;29263;48.172;11.484;2023-06-22T04:04:05;18.90;99.90
43665;DHT22;29263;48.172;11.484;2023-06-22T04:06:30;18.90;99.90
43665;DHT22;29263;48.172;11.484;2023-06-22T04:08:56;18.90;99.90
43665;DHT22;29263;48.172;11.484;2023-06-22T04:11:22;19.00;99.90
43665;DHT22;29263;48.172;11.484;2023-06-22T04:13:47;19.00;99.90
43665;DHT22;29263;48.172;11.484;2023-06-22T04:16:14;19.00;99.90
43665;DHT22;29263;48.172;11.484;2023-06-22T04:18:39;19.00;99.90
43665;DHT22;29263;48.172;11.484;2023-06-22T04:21:05;19.00;99.90
43665;DHT22;29263;48.172;11.484;2023-06-22T04:23:31;19.10;99.90
43665;DHT22;29263;48.172;11.484;2023-06-22T04:25:56;19.10;99.90
43665;DHT22;29263;48.172;11.484;2023-06-22T04:28:23;19.10;99.90
43665;DHT22;29263;48.172;11.484;2023-06-22T04:30:48;19.20;99.90
43665;DHT22;29263;48.172;11.484;2023-06-22T04:33:16;19.20;99.90
43665;DHT22;29263;48.172;11.484;2023-06-22T04:35:45;19.20;99.90
43665;DHT22;29263;48.172;11.484;2023-06-22T04:38:12;19.30;99.90
43665;DHT22;29263;48.172;11.484;2023-06-22T04:40:39;19.40;99.90
43665;DHT22;29263;48.172;11.484;2023-06-22T04:43:04;19.40;99.90
43665;DHT22;29263;48.172;11.484;2023-06-22T04:45:32;19.40;99.90
43665;DHT22;29263;48.172;11.484;2023-06-22T04:47:58;19.40;99.90
43665;DHT22;29263;48.172;11.484;2023-06-22T04:50:23;19.50;99.90
43665;DHT22;29263;48.172;11.484;2023-06-22T04:52:50;19.50;99.90
43665;DHT22;29263;48.172;11.484;2023-06-22T04:55:16;19.50;99.90
43665;DHT22;29263;48.172;11.484;2023-06-22T04:57:45;19.60;99.90
43665;DHT22;29263;48.172;11.484;2023-06-22T05:00:15;19.70;99.90
43665;DHT22;29263;48.172;11.484;2023-06-22T05:02:43;19.80;99.90
43665;DHT22;29263;48.172;11.484;2023-06-22T05:05:10;19.90;99.90
43665;DHT22;29263;48.172;11.484;2023-06-22T05:07:40;19.90;99.90
43665;DHT22;29263;48.172;11.484;2023-06-22T05:10:08;20.00;99.90
43665;DHT22;29263;48.172;11.484;2023-06-22T05:12:34;20.10;99.90
43665;DHT22;29263;48.172;11.484;2023-06-22T05:15:00;20.10;99.90
43665;DHT22;29263;48.172;11.484;2023-06-22T05:17:26;20.20;99.90
43665;DHT22;29263;48.172;11.484;2023-06-22T05:19:53;20.30;99.90
43665;DHT22;29263;48.172;11.484;2023-06-22T05:22:18;20.40;99.90
43665;DHT22;29263;48.172;11.484;2023-06-22T05:24:45;20.40;99.90
43665;DHT22;29263;48.172;11.484;2023-06-22T05:27:10;20.50;99.90
43665;DHT22;29263;48.172;11.484;2023-06-22T05:29:37;20.60;99.90
43665;DHT22;29263;48.172;11.484;2023-06-22T05:32:03;20.60;99.90
43665;DHT22;29263;48.172;11.484;2023-06-22T05:34:28;20.70;99.90
43665;DHT22;29263;48.172;11.484;2023-06-22T05:36:54;20.80;99.90
43665;DHT22;29263;48.172;11.484;2023-06-22T05:39:20;20.90;99.90
43665;DHT22;29263;48.172;11.484;2023-06-22T05:41:46;21.00;99.90
43665;DHT22;29263;48.172;11.484;2023-06-22T05:44:12;21.10;99.90
43665;DHT22;29263;48.172;11.484;2023-06-22T05:46:41;21.20;99.90
43665;DHT22;29263;48.172;11.484;2023-06-22T05:49:10;21.40;99.90
43665;DHT22;29263;48.172;11.484;2023-06-22T05:51:36;21.40;99.90
43665;DHT22;29263;48.172;11.484;2023-06-22T05:54:02;21.60;99.90
43665;DHT22;29263;48.172;11.484;2023-06-22T05:56:27;21.60;99.90
43665;DHT22;29263;48.172;11.484;2023-06-22T05:58:53;21.70;99.90
43665;DHT22;29263;48.172;11.484;2023-06-22T06:01:19;21.80;99.90
43665;DHT22;29263;48.172;11.484;2023-06-22T06:03:44;21.90;99.90
43665;DHT22;29263;48.172;11.484;2023-06-22T06:06:10;22.10;99.90
43665;DHT22;29263;48.172;11.484;2023-06-22T06:08:39;22.20;99.90
43665;DHT22;29263;48.172;11.484;2023-06-22T06:11:05;22.30;99.90
43665;DHT22;29263;48.172;11.484;2023-06-22T06:13:31;22.40;99.90
43665;DHT22;29263;48.172;11.484;2023-06-22T06:15:57;22.60;99.90
43665;DHT22;29263;48.172;11.484;2023-06-22T06:18:23;22.70;99.90
43665;DHT22;29263;48.172;11.484;2023-06-22T06:20:48;22.80;99.90
43665;DHT22;29263;48.172;11.484;2023-06-22T06:23:14;22.90;99.90
43665;DHT22;29263;48.172;11.484;2023-06-22T06:25:40;23.00;99.70
43665;DHT22;29263;48.172;11.484;2023-06-22T06:28:05;23.10;99.20
43665;DHT22;29263;48.172;11.484;2023-06-22T06:30:31;23.20;99.00
43665;DHT22;29263;48.172;11.484;2023-06-22T06:32:57;23.30;98.30
43665;DHT22;29263;48.172;11.484;2023-06-22T06:35:23;23.40;98.90
43665;DHT22;29263;48.172;11.484;2023-06-22T06:37:50;23.50;97.50
43665;DHT22;29263;48.172;11.484;2023-06-22T06:40:17;23.50;97.50
43665;DHT22;29263;48.172;11.484;2023-06-22T06:42:45;23.60;97.80
43665;DHT22;29263;48.172;11.484;2023-06-22T06:45:12;23.60;97.70
43665;DHT22;29263;48.172;11.484;2023-06-22T06:47:39;23.80;97.00
43665;DHT22;29263;48.172;11.484;2023-06-22T06:50:05;23.80;96.70
43665;DHT22;29263;48.172;11.484;2023-06-22T06:52:31;24.00;96.50
43665;DHT22;29263;48.172;11.484;2023-06-22T06:54:57;24.00;95.90
43665;DHT22;29263;48.172;11.484;2023-06-22T06:57:22;24.10;95.60
43665;DHT22;29263;48.172;11.484;2023-06-22T06:59:49;24.10;95.80
43665;DHT22;29263;48.172;11.484;2023-06-22T07:02:15;24.20;95.70
43665;DHT22;29263;48.172;11.484;2023-06-22T07:04:41;24.30;94.90
43665;DHT22;29263;48.172;11.484;2023-06-22T07:07:07;24.40;94.60
43665;DHT22;29263;48.172;11.484;2023-06-22T07:09:33;24.40;94.70
43665;DHT22;29263;48.172;11.484;2023-06-22T07:11:58;24.50;94.70
43665;DHT22;29263;48.172;11.484;2023-06-22T07:14:24;24.60;93.70
43665;DHT22;29263;48.172;11.484;2023-06-22T07:16:49;24.70;93.80
43665;DHT22;29263;48.172;11.484;2023-06-22T07:19:15;24.60;93.20
43665;DHT22;29263;48.172;11.484;2023-06-22T07:21:40;24.70;93.70
43665;DHT22;29263;48.172;11.484;2023-06-22T07:24:07;24.90;92.60
43665;DHT22;29263;48.172;11.484;2023-06-22T07:26:33;25.10;92.60
43665;DHT22;29263;48.172;11.484;2023-06-22T07:28:59;25.20;93.10
43665;DHT22;29263;48.172;11.484;2023-06-22T07:31:25;25.40;91.90
43665;DHT22;29263;48.172;11.484;2023-06-22T07:33:51;25.50;91.20
43665;DHT22;29263;48.172;11.484;2023-06-22T07:36:17;25.60;91.00
43665;DHT22;29263;48.172;11.484;2023-06-22T07:38:43;25.80;90.30
43665;DHT22;29263;48.172;11.484;2023-06-22T07:41:09;25.90;89.60
43665;DHT22;29263;48.172;11.484;2023-06-22T07:43:34;25.90;89.70
43665;DHT22;29263;48.172;11.484;2023-06-22T07:46:03;26.00;88.20
43665;DHT22;29263;48.172;11.484;2023-06-22T07:48:29;26.20;88.50
43665;DHT22;29263;48.172;11.484;2023-06-22T07:50:55;26.30;88.50
43665;DHT22;29263;48.172;11.484;2023-06-22T07:53:21;26.40;87.80
43665;DHT22;29263;48.172;11.484;2023-06-22T07:55:47;26.60;86.80
43665;DHT22;29263;48.172;11.484;2023-06-22T07:58:13;26.70;85.70
43665;DHT22;29263;48.172;11.484;2023-06-22T08:00:38;26.80;84.80
43665;DHT22;29263;48.172;11.484;2023-06-22T08:03:04;26.80;85.00
43665;DHT22;29263;48.172;11.484;2023-06-22T08:05:30;26.90;83.50
43665;DHT22;29263;48.172;11.484;2023-06-22T08:07:56;27.00;82.80
43665;DHT22;29263;48.172;11.484;2023-06-22T08:10:22;27.10;82.20
43665;DHT22;29263;48.172;11.484;2023-06-22T08:12:48;27.20;80.80
43665;DHT22;29263;48.172;11.484;2023-06-22T08:15:13;27.30;80.20
43665;DHT22;29263;48.172;11.484;2023-06-22T08:17:39;27.20;79.70
43665;DHT22;29263;48.172;11.484;2023-06-22T08:20:06;27.10;80.00
43665;DHT22;29263;48.172;11.484;2023-06-22T08:22:35;27.00;79.10
43665;DHT22;29263;48.172;11.484;2023-06-22T08:25:02;27.10;80.50
43665;DHT22;29263;48.172;11.484;2023-06-22T08:27:30;27.30;80.90
43665;DHT22;29263;48.172;11.484;2023-06-22T08:29:57;27.50;79.20
43665;DHT22;29263;48.172;11.484;2023-06-22T08:32:24;27.70;78.60
43665;DHT22;29263;48.172;11.484;2023-06-22T08:34:52;27.70;78.90
43665;DHT22;29263;48.172;11.484;2023-06-22T08:37:18;27.70;78.80
43665;DHT22;29263;48.172;11.484;2023-06-22T08:39:44;27.80;78.30
43665;DHT22;29263;48.172;11.484;2023-06-22T08:42:10;27.80;77.40
43665;DHT22;29263;48.172;11.484;2023-06-22T08:44:36;27.70;78.60
43665;DHT22;29263;48.172;11.484;2023-06-22T08:47:02;27.70;77.50
43665;DHT22;29263;48.172;11.484;2023-06-22T08:49:29;27.60;78.40
43665;DHT22;29263;48.172;11.484;2023-06-22T08:51:54;27.70;77.40
43665;DHT22;29263;48.172;11.484;2023-06-22T08:54:22;27.70;78.00
43665;DHT22;29263;48.172;11.484;2023-06-22T08:56:47;27.60;77.90
43665;DHT22;29263;48.172;11.484;2023-06-22T08:59:13;27.70;77.10
43665;DHT22;29263;48.172;11.484;2023-06-22T09:01:39;27.80;78.20
43665;DHT22;29263;48.172;11.484;2023-06-22T09:07:44;28.10;77.20
43665;DHT22;29263;48.172;11.484;2023-06-22T09:10:10;28.40;75.80
43665;DHT22;29263;48.172;11.484;2023-06-22T09:12:35;28.50;74.50
43665;DHT22;29263;48.172;11.484;2023-06-22T09:15:03;28.60;75.20
43665;DHT22;29263;48.172;11.484;2023-06-22T09:17:29;28.70;73.10
43665;DHT22;29263;48.172;11.484;2023-06-22T09:19:55;28.70;72.50
43665;DHT22;29263;48.172;11.484;2023-06-22T09:22:24;28.70;72.80
43665;DHT22;29263;48.172;11.484;2023-06-22T09:24:55;28.80;72.40
43665;DHT22;29263;48.172;11.484;2023-06-22T09:27:21;28.80;72.30
43665;DHT22;29263;48.172;11.484;2023-06-22T09:29:47;28.90;70.90
43665;DHT22;29263;48.172;11.484;2023-06-22T09:32:13;28.90;70.50
43665;DHT22;29263;48.172;11.484;2023-06-22T09:34:39;29.00;70.90
43665;DHT22;29263;48.172;11.484;2023-06-22T09:37:04;29.10;70.10
43665;DHT22;29263;48.172;11.484;2023-06-22T09:39:30;29.10;69.40
43665;DHT22;29263;48.172;11.484;2023-06-22T09:41:59;29.30;68.40
43665;DHT22;29263;48.172;11.484;2023-06-22T09:44:25;29.40;69.30
43665;DHT22;29263;48.172;11.484;2023-06-22T09:46:50;29.50;67.70
43665;DHT22;29263;48.172;11.484;2023-06-22T09:49:16;29.50;66.60
43665;DHT22;29263;48.172;11.484;2023-06-22T09:51:41;29.50;66.30
43665;DHT22;29263;48.172;11.484;2023-06-22T09:54:07;29.60;67.50
43665;DHT22;29263;48.172;11.484;2023-06-22T09:56:33;29.70;66.60
43665;DHT22;29263;48.172;11.484;2023-06-22T09:58:58;29.80;65.20
43665;DHT22;29263;48.172;11.484;2023-06-22T10:01:24;29.90;65.90
43665;DHT22;29263;48.172;11.484;2023-06-22T10:03:51;30.10;65.10
43665;DHT22;29263;48.172;11.484;2023-06-22T10:06:19;30.20;65.30
43665;DHT22;29263;48.172;11.484;2023-06-22T10:08:45;30.20;64.10
43665;DHT22;29263;48.172;11.484;2023-06-22T10:11:11;30.30;63.60
43665;DHT22;29263;48.172;11.484;2023-06-22T10:13:36;30.40;63.50
43665;DHT22;29263;48.172;11.484;2023-06-22T10:16:02;30.50;63.00
43665;DHT22;29263;48.172;11.484;2023-06-22T10:18:27;30.60;62.80
43665;DHT22;29263;48.172;11.484;2023-06-22T10:20:53;30.60;61.50
43665;DHT22;29263;48.172;11.484;2023-06-22T10:23:19;30.70;60.90
43665;DHT22;29263;48.172;11.484;2023-06-22T10:25:45;30.70;61.00
43665;DHT22;29263;48.172;11.484;2023-06-22T10:28:11;30.80;61.60
43665;DHT22;29263;48.172;11.484;2023-06-22T10:30:41;30.80;61.90
43665;DHT22;29263;48.172;11.484;2023-06-22T10:33:07;31.00;60.90
43665;DHT22;29263;48.172;11.484;2023-06-22T10:35:33;31.00;60.00
43665;DHT22;29263;48.172;11.484;2023-06-22T10:37:58;31.00;60.10
43665;DHT22;29263;48.172;11.484;2023-06-22T10:40:24;31.10;60.00
43665;DHT22;29263;48.172;11.484;2023-06-22T10:42:50;31.20;58.90
43665;DHT22;29263;48.172;11.484;2023-06-22T10:45:15;31.20;59.20
43665;DHT22;29263;48.172;11.484;2023-06-22T10:47:41;31.30;59.20
43665;DHT22;29263;48.172;11.484;2023-06-22T10:50:10;31.40;59.20
43665;DHT22;29263;48.172;11.484;2023-06-22T10:52:36;31.50;59.40
43665;DHT22;29263;48.172;11.484;2023-06-22T10:55:02;31.70;59.20
43665;DHT22;29263;48.172;11.484;2023-06-22T10:57:27;31.80;58.60
43665;DHT22;29263;48.172;11.484;2023-06-22T10:59:53;31.70;59.70
43665;DHT22;29263;48.172;11.484;2023-06-22T11:02:19;31.60;58.00
43665;DHT22;29263;48.172;11.484;2023-06-22T11:04:44;31.50;58.60
43665;DHT22;29263;48.172;11.484;2023-06-22T11:07:11;31.30;59.40
43665;DHT22;29263;48.172;11.484;2023-06-22T11:09:37;31.10;59.30
43665;DHT22;29263;48.172;11.484;2023-06-22T11:12:04;30.90;60.10
43665;DHT22;29263;48.172;11.484;2023-06-22T11:14:30;30.90;61.30
43665;DHT22;29263;48.172;11.484;2023-06-22T11:16:55;31.00;60.70
43665;DHT22;29263;48.172;11.484;2023-06-22T11:19:21;31.10;60.00
43665;DHT22;29263;48.172;11.484;2023-06-22T11:21:47;31.20;59.80
43665;DHT22;29263;48.172;11.484;2023-06-22T11:24:12;31.30;59.40
43665;DHT22;29263;48.172;11.484;2023-06-22T11:26:38;31.30;59.60
43665;DHT22;29263;48.172;11.484;2023-06-22T11:29:04;31.30;59.60
43665;DHT22;29263;48.172;11.484;2023-06-22T11:31:31;31.50;59.50
43665;DHT22;29263;48.172;11.484;2023-06-22T11:33:57;31.80;58.80
43665;DHT22;29263;48.172;11.484;2023-06-22T11:36:23;32.10;58.20
43665;DHT22;29263;48.172;11.484;2023-06-22T11:38:51;32.30;57.50
43665;DHT22;29263;48.172;11.484;2023-06-22T11:41:17;32.50;56.70
43665;DHT22;29263;48.172;11.484;2023-06-22T11:43:43;32.70;55.80
43665;DHT22;29263;48.172;11.484;2023-06-22T11:46:09;32.80;56.90
43665;DHT22;29263;48.172;11.484;2023-06-22T11:48:35;33.10;56.20
43665;DHT22;29263;48.172;11.484;2023-06-22T11:51:02;33.20;54.00
43665;DHT22;29263;48.172;11.484;2023-06-22T11:53:28;33.30;53.40
43665;DHT22;29263;48.172;11.484;2023-06-22T11:55:54;33.30;54.50
43665;DHT22;29263;48.172;11.484;2023-06-22T11:58:20;33.30;54.00
43665;DHT22;29263;48.172;11.484;2023-06-22T12:00:46;33.30;53.90
43665;DHT22;29263;48.172;11.484;2023-06-22T12:03:12;33.30;53.90
43665;DHT22;29263;48.172;11.484;2023-06-22T12:05:38;33.30;53.90
43665;DHT22;29263;48.172;11.484;2023-06-22T12:08:04;33.40;54.30
43665;DHT22;29263;48.172;11.484;2023-06-22T12:10:29;33.40;53.50
43665;DHT22;29263;48.172;11.484;2023-06-22T12:12:55;33.40;53.70
43665;DHT22;29263;48.172;11.484;2023-06-22T12:15:23;33.60;52.90
43665;DHT22;29263;48.172;11.484;2023-06-22T12:17:48;33.60;52.80
43665;DHT22;29263;48.172;11.484;2023-06-22T12:20:14;33.70;52.60
43665;DHT22;29263;48.172;11.484;2023-06-22T12:22:40;33.80;53.40
43665;DHT22;29263;48.172;11.484;2023-06-22T12:25:07;33.80;52.70
43665;DHT22;29263;48.172;11.484;2023-06-22T12:27:33;33.60;52.50
43665;DHT22;29263;48.172;11.484;2023-06-22T12:29:58;33.40;53.10
43665;DHT22;29263;48.172;11.484;2023-06-22T12:32:24;33.30;52.60
43665;DHT22;29263;48.172;11.484;2023-06-22T12:34:51;33.30;53.50
43665;DHT22;29263;48.172;11.484;2023-06-22T12:37:16;33.40;54.10
43665;DHT22;29263;48.172;11.484;2023-06-22T12:39:42;33.60;53.30
43665;DHT22;29263;48.172;11.484;2023-06-22T12:42:08;33.80;52.50
43665;DHT22;29263;48.172;11.484;2023-06-22T12:44:37;33.70;52.00
43665;DHT22;29263;48.172;11.484;2023-06-22T12:47:03;33.80;51.60
43665;DHT22;29263;48.172;11.484;2023-06-22T12:49:29;33.60;52.10
43665;DHT22;29263;48.172;11.484;2023-06-22T12:51:55;33.50;52.90
43665;DHT22;29263;48.172;11.484;2023-06-22T12:54:20;33.40;52.30
43665;DHT22;29263;48.172;11.484;2023-06-22T12:56:46;33.40;51.80
43665;DHT22;29263;48.172;11.484;2023-06-22T12:59:12;33.40;52.50
43665;DHT22;29263;48.172;11.484;2023-06-22T13:01:38;33.30;53.40
43665;DHT22;29263;48.172;11.484;2023-06-22T13:04:04;33.30;54.10
43665;DHT22;29263;48.172;11.484;2023-06-22T13:06:29;33.30;53.30
43665;DHT22;29263;48.172;11.484;2023-06-22T13:08:55;33.30;53.80
43665;DHT22;29263;48.172;11.484;2023-06-22T13:11:21;33.40;54.00
43665;DHT22;29263;48.172;11.484;2023-06-22T13:13:46;33.50;53.20
43665;DHT22;29263;48.172;11.484;2023-06-22T13:16:12;33.50;53.20
43665;DHT22;29263;48.172;11.484;2023-06-22T13:18:38;33.60;53.10
43665;DHT22;29263;48.172;11.484;2023-06-22T13:21:04;33.60;52.70
43665;DHT22;29263;48.172;11.484;2023-06-22T13:23:30;33.60;53.20
43665;DHT22;29263;48.172;11.484;2023-06-22T13:25:57;33.60;52.20
43665;DHT22;29263;48.172;11.484;2023-06-22T13:28:22;33.70;51.70
43665;DHT22;29263;48.172;11.484;2023-06-22T13:30:48;33.70;52.80
43665;DHT22;29263;48.172;11.484;2023-06-22T13:33:14;33.60;52.20
43665;DHT22;29263;48.172;11.484;2023-06-22T13:35:40;33.60;53.10
43665;DHT22;29263;48.172;11.484;2023-06-22T13:38:10;33.70;52.60
43665;DHT22;29263;48.172;11.484;2023-06-22T13:40:39;33.60;52.20
43665;DHT22;29263;48.172;11.484;2023-06-22T13:43:05;33.70;52.40
43665;DHT22;29263;48.172;11.484;2023-06-22T13:45:31;33.70;52.00
43665;DHT22;29263;48.172;11.484;2023-06-22T13:47:56;33.70;51.60
43665;DHT22;29263;48.172;11.484;2023-06-22T13:50:22;33.60;51.00
43665;DHT22;29263;48.172;11.484;2023-06-22T13:52:47;33.70;51.30
43665;DHT22;29263;48.172;11.484;2023-06-22T13:55:13;33.60;50.60
43665;DHT22;29263;48.172;11.484;2023-06-22T13:57:40;33.70;50.90
43665;DHT22;29263;48.172;11.484;2023-06-22T14:00:07;33.70;50.00
43665;DHT22;29263;48.172;11.484;2023-06-22T14:02:34;33.70;48.70
43665;DHT22;29263;48.172;11.484;2023-06-22T14:05:00;33.70;49.50
43665;DHT22;29263;48.172;11.484;2023-06-22T14:07:25;33.70;50.20
43665;DHT22;29263;48.172;11.484;2023-06-22T14:09:51;33.80;50.20
43665;DHT22;29263;48.172;11.484;2023-06-22T14:12:17;33.80;49.00
43665;DHT22;29263;48.172;11.484;2023-06-22T14:14:45;33.70;48.50
43665;DHT22;29263;48.172;11.484;2023-06-22T14:17:11;33.70;49.40
43665;DHT22;29263;48.172;11.484;2023-06-22T14:19:37;33.70;48.90
43665;DHT22;29263;48.172;11.484;2023-06-22T14:22:03;33.70;47.90
43665;DHT22;29263;48.172;11.484;2023-06-22T14:24:28;33.70;47.00
43665;DHT22;29263;48.172;11.484;2023-06-22T14:26:57;33.80;47.80
43665;DHT22;29263;48.172;11.484;2023-06-22T14:29:22;33.80;48.10
43665;DHT22;29263;48.172;11.484;2023-06-22T14:31:48;33.90;46.90
43665;DHT22;29263;48.172;11.484;2023-06-22T14:34:15;33.90;46.50
43665;DHT22;29263;48.172;11.484;2023-06-22T14:36:41;33.90;47.30
43665;DHT22;29263;48.172;11.484;2023-06-22T14:39:07;34.00;47.60
43665;DHT22;29263;48.172;11.484;2023-06-22T14:41:32;34.00;47.90
43665;DHT22;29263;48.172;11.484;2023-06-22T14:43:58;34.20;48.20
43665;DHT22;29263;48.172;11.484;2023-06-22T14:46:23;34.20;47.60
43665;DHT22;29263;48.172;11.484;2023-06-22T14:48:49;34.30;46.80
43665;DHT22;29263;48.172;11.484;2023-06-22T14:51:15;34.30;46.50
43665;DHT22;29263;48.172;11.484;2023-06-22T14:53:43;34.40;46.60
43665;DHT22;29263;48.172;11.484;2023-06-22T14:56:09;34.60;46.70
43665;DHT22;29263;48.172;11.484;2023-06-22T14:58:35;34.90;45.30
43665;DHT22;29263;48.172;11.484;2023-06-22T15:01:03;35.00;45.20
43665;DHT22;29263;48.172;11.484;2023-06-22T15:03:32;35.00;44.70
43665;DHT22;29263;48.172;11.484;2023-06-22T15:05:58;34.90;44.70
43665;DHT22;29263;48.172;11.484;2023-06-22T15:08:25;34.90;44.30
43665;DHT22;29263;48.172;11.484;2023-06-22T15:10:52;35.00;44.20
43665;DHT22;29263;48.172;11.484;2023-06-22T15:13:18;35.00;44.30
43665;DHT22;29263;48.172;11.484;2023-06-22T15:15:45;34.90;44.60
43665;DHT22;29263;48.172;11.484;2023-06-22T15:18:12;34.80;44.30
43665;DHT22;29263;48.172;11.484;2023-06-22T15:20:38;34.70;43.30